Time;durP1;ratioP1;P1;durP2;ratioP2;P2;SDS_P1;SDS_P2;PMS_P1;PMS_P2;Temp;Humidity;BMP_temperature;BMP_pressure;BME280_temperature;BME280_humidity;BME280_pressure;Samples;Min_cycle;Max_cycle;Signal;HPM_P1;HPM_P2
2022/12/21 00:02:26;;;;;;;15.65;11.50;;;1.00;99.90;;;;;;5010312;28;20048;-80
2022/12/21 00:04:53;;;;;;;23.65;12.68;;;1.10;99.90;;;;;;4975994;28;20418;-80
2022/12/21 00:07:21;;;;;;;15.57;11.90;;;1.00;99.90;;;;;;4991591;28;20141;-80
2022/12/21 00:09:51;;;;;;;17.15;14.73;;;0.90;99.90;;;;;;4992249;28;20049;-81
2022/12/21 00:12:19;;;;;;;19.35;13.43;;;0.90;99.90;;;;;;4992127;28;20034;-80
2022/12/21 00:14:46;;;;;;;14.07;12.57;;;0.90;99.90;;;;;;4992819;28;20046;-80
2022/12/21 00:17:14;;;;;;;17.58;10.32;;;0.80;99.90;;;;;;5009419;28;20042;-80
2022/12/21 00:19:43;;;;;;;16.17;12.15;;;0.80;99.90;;;;;;4991793;28;20387;-81
2022/12/21 00:22:11;;;;;;;16.00;11.70;;;0.80;99.90;;;;;;5008633;28;20293;-81
2022/12/21 00:24:42;;;;;;;15.80;12.05;;;0.80;99.90;;;;;;4999735;28;20046;-80
2022/12/21 00:27:09;;;;;;;16.90;11.95;;;0.90;99.90;;;;;;5009259;28;20049;-80
2022/12/21 00:29:37;;;;;;;17.17;13.10;;;0.90;99.90;;;;;;4991404;28;20056;-81
2022/12/21 00:32:05;;;;;;;16.67;13.32;;;0.90;99.90;;;;;;4991461;28;20046;-81
2022/12/21 00:34:36;;;;;;;16.25;10.95;;;1.00;99.90;;;;;;5010069;28;20041;-81
2022/12/21 00:37:03;;;;;;;12.87;10.43;;;1.00;99.90;;;;;;4990267;28;20045;-81
2022/12/21 00:39:31;;;;;;;17.48;12.43;;;1.00;99.90;;;;;;4988586;28;20135;-81
2022/12/21 00:41:58;;;;;;;12.77;9.40;;;1.00;99.90;;;;;;4987506;28;20046;-81
2022/12/21 00:44:26;;;;;;;13.70;11.70;;;1.00;99.90;;;;;;5004301;28;20062;-81
2022/12/21 00:46:55;;;;;;;13.13;11.70;;;1.00;99.90;;;;;;4990174;28;20065;-81
2022/12/21 00:49:22;;;;;;;14.32;11.90;;;1.00;99.90;;;;;;4972179;28;20065;-81
2022/12/21 00:51:53;;;;;;;18.13;13.75;;;1.00;99.90;;;;;;4987760;28;20410;-81
2022/12/21 00:54:20;;;;;;;13.35;10.23;;;1.10;99.90;;;;;;4968632;28;20058;-81
2022/12/21 00:56:48;;;;;;;17.48;10.82;;;1.00;99.90;;;;;;4968828;28;20051;-81
2022/12/21 00:59:15;;;;;;;20.73;11.88;;;1.00;99.90;;;;;;4969328;28;20054;-81
2022/12/21 01:01:43;;;;;;;15.68;11.40;;;0.90;99.90;;;;;;4980158;28;20050;-81
2022/12/21 01:04:13;;;;;;;14.38;12.32;;;0.90;99.90;;;;;;4989039;28;20039;-81
2022/12/21 01:06:41;;;;;;;19.65;13.55;;;1.00;99.90;;;;;;4988376;28;20058;-81
2022/12/21 01:09:10;;;;;;;14.52;11.73;;;0.90;99.90;;;;;;4987041;28;20259;-81
2022/12/21 01:11:37;;;;;;;14.13;11.80;;;1.00;99.90;;;;;;4988300;28;20049;-81
2022/12/21 01:14:05;;;;;;;16.90;10.90;;;1.00;99.90;;;;;;4987455;28;20046;-81
2022/12/21 01:16:35;;;;;;;16.98;11.50;;;1.00;99.90;;;;;;4989203;28;20465;-81
2022/12/21 01:19:06;;;;;;;17.65;13.95;;;1.00;99.90;;;;;;4987906;28;20050;-81
2022/12/21 01:21:34;;;;;;;16.50;14.80;;;1.00;99.90;;;;;;4971420;28;20047;-81
2022/12/21 01:24:03;;;;;;;16.48;11.32;;;1.00;99.90;;;;;;4986823;28;20053;-80
2022/12/21 01:26:33;;;;;;;19.42;15.50;;;0.90;99.90;;;;;;4971696;28;20127;-81
2022/12/21 01:29:00;;;;;;;17.30;10.98;;;0.90;99.90;;;;;;4988861;28;20050;-81
2022/12/21 01:31:28;;;;;;;21.52;14.93;;;0.90;99.90;;;;;;4987405;28;20089;-81
2022/12/21 01:33:56;;;;;;;20.42;12.95;;;0.90;99.90;;;;;;4988347;28;20050;-81
2022/12/21 01:36:25;;;;;;;15.23;11.90;;;1.00;99.90;;;;;;4971182;28;20026;-81
2022/12/21 01:38:52;;;;;;;15.23;12.38;;;1.00;99.90;;;;;;4986420;28;20050;-81
2022/12/21 01:41:23;;;;;;;17.52;13.05;;;1.10;99.90;;;;;;4971283;28;20450;-81
2022/12/21 01:43:57;;;;;;;14.15;11.38;;;1.10;99.90;;;;;;4988978;28;20073;-81
2022/12/21 01:46:40;;;;;;;15.25;12.13;;;1.00;99.90;;;;;;4987986;28;20066;-81
2022/12/21 01:49:29;;;;;;;17.48;12.07;;;1.00;99.90;;;;;;4987209;28;20432;-81
2022/12/21 01:52:02;;;;;;;14.32;11.63;;;0.90;99.90;;;;;;4990336;28;20430;-81
2022/12/21 01:54:34;;;;;;;15.18;12.80;;;0.90;99.90;;;;;;4968033;28;20046;-81
2022/12/21 01:57:07;;;;;;;14.73;12.73;;;0.90;99.90;;;;;;4968804;28;20058;-81
2022/12/21 01:59:38;;;;;;;17.70;13.07;;;0.90;99.90;;;;;;4936492;28;20051;-81
2022/12/21 02:02:09;;;;;;;17.15;13.70;;;0.90;99.90;;;;;;4968844;28;20370;-81
2022/12/21 02:04:40;;;;;;;17.30;12.73;;;1.00;99.90;;;;;;4968387;28;20046;-81
2022/12/21 02:07:08;;;;;;;15.07;12.40;;;0.90;99.90;;;;;;4968834;28;20058;-81
2022/12/21 02:09:39;;;;;;;20.27;14.07;;;0.90;99.90;;;;;;4967256;28;20058;-81
2022/12/21 02:12:12;;;;;;;16.50;11.93;;;0.90;99.90;;;;;;4968042;28;20039;-81
2022/12/21 02:14:43;;;;;;;20.63;12.25;;;0.90;99.90;;;;;;4952222;28;20236;-81
2022/12/21 02:17:26;;;;;;;18.33;12.13;;;0.90;99.90;;;;;;4952553;28;20058;-81
2022/12/21 02:20:26;;;;;;;13.32;12.07;;;0.80;99.90;;;;;;4971516;28;20050;-81
2022/12/21 02:23:44;;;;;;;15.07;10.93;;;0.80;99.90;;;;;;4954516;28;20054;-81
2022/12/21 02:26:37;;;;;;;25.08;14.38;;;0.80;99.90;;;;;;4962837;28;20050;-81
2022/12/21 02:29:45;;;;;;;21.20;14.60;;;0.90;99.90;;;;;;4988670;28;20050;-81
2022/12/21 02:32:32;;;;;;;15.98;10.73;;;0.90;99.90;;;;;;4986590;28;20054;-81
2022/12/21 02:35:17;;;;;;;13.55;10.90;;;1.00;99.90;;;;;;4971871;28;20046;-81
2022/12/21 02:38:17;;;;;;;16.15;13.63;;;1.00;99.90;;;;;;4988609;28;20050;-81
2022/12/21 02:41:07;;;;;;;17.38;12.32;;;1.00;99.90;;;;;;4990513;28;20519;-81
2022/12/21 02:44:13;;;;;;;14.52;12.15;;;1.00;99.90;;;;;;4994522;28;20054;-81
2022/12/21 02:46:59;;;;;;;12.65;11.35;;;1.00;99.90;;;;;;4974685;28;20053;-81
2022/12/21 02:49:39;;;;;;;13.45;12.18;;;1.00;99.90;;;;;;5006388;28;20048;-80
2022/12/21 02:52:28;;;;;;;13.38;11.73;;;1.00;99.90;;;;;;5009877;28;20038;-81
2022/12/21 02:55:00;;;;;;;17.65;12.38;;;0.90;99.90;;;;;;4991857;28;20061;-81
2022/12/21 02:57:38;;;;;;;13.05;11.55;;;0.90;99.90;;;;;;4994087;28;20295;-81
2022/12/21 03:00:13;;;;;;;12.95;9.57;;;1.00;99.90;;;;;;4974147;28;20085;-81
2022/12/21 03:06:24;;;;;;;14.82;11.07;;;1.00;99.90;;;;;;4973929;28;20264;-81
2022/12/21 03:09:05;;;;;;;15.88;12.00;;;1.00;99.90;;;;;;4973209;28;20213;-81
2022/12/21 03:11:59;;;;;;;16.58;11.48;;;1.10;99.90;;;;;;4974148;28;20058;-81
2022/12/21 03:14:51;;;;;;;17.73;12.50;;;1.10;99.90;;;;;;4973003;28;20239;-81
2022/12/21 03:18:01;;;;;;;14.43;12.45;;;1.10;99.90;;;;;;4974080;28;20280;-81
2022/12/21 03:20:59;;;;;;;10.40;8.85;;;1.10;99.90;;;;;;5008131;28;20045;-81
2022/12/21 03:23:32;;;;;;;20.98;11.40;;;1.00;99.90;;;;;;5029611;28;20389;-81
2022/12/21 03:26:13;;;;;;;14.05;10.18;;;0.90;99.90;;;;;;5013332;28;20072;-82
2022/12/21 03:28:43;;;;;;;13.90;11.27;;;0.90;99.90;;;;;;5010337;28;20386;-81
2022/12/21 03:31:17;;;;;;;13.97;10.43;;;1.00;99.90;;;;;;5031351;28;20049;-81
2022/12/21 03:33:52;;;;;;;16.25;8.48;;;1.10;99.90;;;;;;5011858;28;20285;-81
2022/12/21 03:36:33;;;;;;;15.32;11.80;;;1.20;99.90;;;;;;5030432;28;20042;-81
2022/12/21 03:39:08;;;;;;;11.32;8.82;;;1.30;99.90;;;;;;4992445;28;20050;-81
2022/12/21 03:42:06;;;;;;;12.15;10.23;;;1.20;99.90;;;;;;4989160;28;20039;-82
2022/12/21 03:44:43;;;;;;;18.73;11.77;;;1.30;99.90;;;;;;4983752;28;20038;-82
2022/12/21 03:47:17;;;;;;;14.23;10.98;;;1.40;99.90;;;;;;4989634;28;20790;-82
2022/12/21 03:49:53;;;;;;;17.40;11.32;;;1.40;99.90;;;;;;4990421;28;20421;-82
2022/12/21 03:52:24;;;;;;;11.63;8.20;;;1.30;99.90;;;;;;4972440;28;20057;-82
2022/12/21 03:54:55;;;;;;;19.73;11.88;;;1.20;99.90;;;;;;5006459;28;20038;-82
2022/12/21 03:57:24;;;;;;;;;;;1.20;99.90;;;;;;4990652;28;20069;-82
2022/12/21 03:59:55;;;;;;;9.70;8.63;;;1.10;99.90;;;;;;5005006;28;19925;-82
2022/12/21 04:02:31;;;;;;;12.35;8.50;;;1.10;99.90;;;;;;4991227;28;20057;-82
2022/12/21 04:05:05;;;;;;;14.18;11.05;;;1.20;99.90;;;;;;4991004;28;20051;-82
2022/12/21 04:07:35;;;;;;;9.30;8.40;;;1.20;99.90;;;;;;4972911;28;20050;-82
2022/12/21 04:10:09;;;;;;;12.32;10.52;;;1.30;99.90;;;;;;4990133;28;20059;-81
2022/12/21 04:12:38;;;;;;;9.07;7.13;;;1.30;99.90;;;;;;4990364;28;20050;-82
2022/12/21 04:15:25;;;;;;;10.70;8.40;;;1.30;99.90;;;;;;5006090;28;20123;-82
2022/12/21 04:17:52;;;;;;;8.90;8.10;;;1.30;99.90;;;;;;4988257;28;20046;-82
2022/12/21 04:20:23;;;;;;;10.27;7.82;;;1.30;99.90;;;;;;4997870;28;20118;-82
2022/12/21 04:28:26;;;;;;;17.67;10.88;;;1.20;99.90;;;;;;4992570;28;20046;-82
2022/12/21 04:31:15;;;;;;;9.32;8.35;;;1.20;99.90;;;;;;5008907;28;20057;-82
2022/12/21 04:33:43;;;;;;;7.00;6.35;;;1.30;99.90;;;;;;5009428;28;20049;-82
2022/12/21 04:38:58;;;;;;;16.08;9.40;;;1.30;99.90;;;;;;5007735;28;20060;-82
2022/12/21 04:41:26;;;;;;;8.23;7.43;;;1.40;99.90;;;;;;5008279;28;20049;-82
2022/12/21 04:43:54;;;;;;;8.00;7.05;;;1.30;99.90;;;;;;5009475;28;20058;-82
2022/12/21 04:46:22;;;;;;;7.63;6.70;;;1.40;99.90;;;;;;5010333;28;20046;-82
2022/12/21 04:48:49;;;;;;;9.05;7.32;;;1.30;99.90;;;;;;5007869;28;20418;-82
2022/12/21 04:51:20;;;;;;;10.88;9.25;;;1.30;99.90;;;;;;4991477;28;20628;-83
2022/12/21 04:53:51;;;;;;;8.43;6.68;;;1.30;99.90;;;;;;4988807;28;20072;-83
2022/12/21 04:56:20;;;;;;;8.70;7.87;;;1.40;99.90;;;;;;5023175;28;20786;-83
2022/12/21 04:58:49;;;;;;;11.70;8.75;;;1.40;99.90;;;;;;5010018;28;20649;-83
2022/12/21 05:01:19;;;;;;;9.23;8.32;;;1.40;99.90;;;;;;5017402;28;20072;-83
2022/12/21 05:03:48;;;;;;;13.02;8.02;;;1.40;99.90;;;;;;5027110;28;20053;-83
2022/12/21 05:06:18;;;;;;;8.93;7.70;;;1.30;99.90;;;;;;5011643;28;20258;-83
2022/12/21 05:08:45;;;;;;;7.20;6.50;;;1.30;99.90;;;;;;5010567;28;20060;-83
2022/12/21 05:11:17;;;;;;;8.88;7.75;;;1.30;99.90;;;;;;5027488;28;20045;-83
2022/12/21 05:13:46;;;;;;;7.05;6.35;;;1.40;99.90;;;;;;5028945;28;20332;-83
2022/12/21 05:16:23;;;;;;;7.88;6.60;;;1.40;99.90;;;;;;5027740;28;20684;-83
2022/12/21 05:18:54;;;;;;;8.05;7.22;;;1.60;99.90;;;;;;5011023;28;20076;-84
2022/12/21 05:21:22;;;;;;;9.00;8.10;;;1.70;99.90;;;;;;5010356;28;20056;-83
2022/12/21 05:23:50;;;;;;;10.50;7.50;;;1.80;99.90;;;;;;5006370;28;20050;-83
2022/12/21 05:26:18;;;;;;;11.93;7.30;;;1.80;99.90;;;;;;5006750;28;20057;-84
2022/12/21 05:28:46;;;;;;;10.50;8.43;;;1.50;99.90;;;;;;5004852;28;20398;-84
2022/12/21 05:31:15;;;;;;;9.20;6.05;;;1.40;99.90;;;;;;5007325;28;20642;-84
2022/12/21 05:33:43;;;;;;;6.95;6.38;;;1.40;99.90;;;;;;5006402;28;20059;-83
2022/12/21 05:36:16;;;;;;;14.50;7.75;;;1.40;99.90;;;;;;4989198;28;20074;-84
2022/12/21 05:38:45;;;;;;;8.48;6.45;;;1.30;99.90;;;;;;4998419;28;20425;-83
2022/12/21 05:41:15;;;;;;;13.65;7.47;;;1.30;99.90;;;;;;4971540;28;20057;-83
2022/12/21 05:43:42;;;;;;;8.55;7.55;;;1.40;99.90;;;;;;4971361;28;20065;-83
2022/12/21 05:46:12;;;;;;;7.72;6.93;;;1.50;99.90;;;;;;4989284;28;20059;-83
2022/12/21 05:48:45;;;;;;;9.02;6.97;;;1.60;99.90;;;;;;4972557;28;20053;-83
2022/12/21 05:51:19;;;;;;;8.80;6.53;;;1.50;99.90;;;;;;4971814;28;20363;-83
2022/12/21 05:53:47;;;;;;;10.43;7.43;;;1.50;99.90;;;;;;4969799;28;20047;-84
2022/12/21 05:56:18;;;;;;;7.50;6.55;;;1.60;99.90;;;;;;4986962;28;20050;-83
2022/12/21 05:58:46;;;;;;;9.07;8.20;;;1.70;99.90;;;;;;4988981;28;20065;-84
2022/12/21 06:01:14;;;;;;;9.63;6.15;;;1.70;99.90;;;;;;4986954;28;20058;-83
2022/12/21 06:03:42;;;;;;;6.75;6.03;;;1.80;99.90;;;;;;4987727;28;20058;-84
2022/12/21 06:06:15;;;;;;;7.28;6.55;;;1.80;99.90;;;;;;4989010;28;20054;-82
2022/12/21 06:08:44;;;;;;;8.40;6.68;;;1.90;99.90;;;;;;4986338;28;20466;-83
2022/12/21 06:11:17;;;;;;;9.10;8.20;;;2.00;99.90;;;;;;4971308;28;20046;-84
2022/12/21 06:13:45;;;;;;;9.43;8.45;;;2.00;99.90;;;;;;4974583;28;20038;-84
2022/12/21 06:16:19;;;;;;;13.52;9.27;;;2.00;99.90;;;;;;4975470;28;20421;-84
2022/12/21 06:18:48;;;;;;;12.63;8.40;;;2.00;99.90;;;;;;4975383;28;20058;-83
2022/12/21 06:21:18;;;;;;;24.00;8.63;;;1.80;99.90;;;;;;5003868;28;20041;-83
2022/12/21 06:23:47;;;;;;;7.82;6.18;;;1.70;99.90;;;;;;5030279;28;20064;-84
2022/12/21 06:26:17;;;;;;;9.88;7.38;;;1.60;99.90;;;;;;5014702;28;20784;-84
2022/12/21 06:28:51;;;;;;;9.70;8.13;;;1.60;99.90;;;;;;5014365;28;20042;-83
2022/12/21 06:31:20;;;;;;;11.45;7.20;;;1.50;99.90;;;;;;5013867;28;20046;-84
2022/12/21 06:33:48;;;;;;;7.13;6.28;;;1.50;99.90;;;;;;5030911;28;20045;-84
2022/12/21 06:36:17;;;;;;;10.32;7.78;;;1.50;99.90;;;;;;5014040;28;20052;-84
2022/12/21 06:38:45;;;;;;;13.70;8.85;;;1.40;99.90;;;;;;4993681;28;20061;-84
2022/12/21 06:41:14;;;;;;;8.82;6.63;;;1.40;99.90;;;;;;4981721;28;20047;-84
2022/12/21 06:43:43;;;;;;;8.10;7.38;;;1.40;99.90;;;;;;4992332;28;20050;-84
2022/12/21 06:46:14;;;;;;;11.32;7.95;;;1.40;99.90;;;;;;4975243;28;20047;-84
2022/12/21 06:48:42;;;;;;;10.65;7.95;;;1.30;99.90;;;;;;4974328;28;20055;-84
2022/12/21 06:51:13;;;;;;;8.57;7.70;;;1.40;99.90;;;;;;4991838;28;20054;-84
2022/12/21 06:53:42;;;;;;;7.90;7.13;;;1.50;99.90;;;;;;4989176;28;20042;-84
2022/12/21 06:56:21;;;;;;;8.77;7.45;;;1.60;99.90;;;;;;4990052;28;20042;-84
2022/12/21 06:58:50;;;;;;;9.32;8.43;;;1.60;99.90;;;;;;4991187;28;20054;-83
2022/12/21 07:01:27;;;;;;;10.32;9.43;;;1.70;99.90;;;;;;4991462;28;20050;-83
2022/12/21 07:03:55;;;;;;;9.50;8.70;;;1.60;99.90;;;;;;5006108;28;20062;-84
2022/12/21 07:06:25;;;;;;;7.07;6.30;;;1.60;99.90;;;;;;4992259;28;20421;-84
2022/12/21 07:08:53;;;;;;;9.52;6.65;;;1.60;99.90;;;;;;4988557;28;20042;-84
2022/12/21 07:11:27;;;;;;;10.48;7.30;;;1.50;99.90;;;;;;4989626;28;20361;-84
2022/12/21 07:13:56;;;;;;;8.52;7.63;;;1.50;99.90;;;;;;4991430;28;20053;-84
2022/12/21 07:16:24;;;;;;;7.97;6.63;;;1.70;99.90;;;;;;4990401;28;20050;-84
2022/12/21 07:18:53;;;;;;;8.25;7.53;;;1.80;99.90;;;;;;4974287;28;20058;-84
2022/12/21 07:21:21;;;;;;;10.02;7.97;;;1.90;99.90;;;;;;4991428;28;20069;-84
2022/12/21 07:23:50;;;;;;;10.43;6.97;;;1.90;99.90;;;;;;4987759;28;20050;-85
2022/12/21 07:26:23;;;;;;;8.20;6.32;;;2.00;99.90;;;;;;4991668;28;20046;-84
2022/12/21 07:28:54;;;;;;;11.25;7.97;;;2.00;99.90;;;;;;4985903;28;20050;-85
2022/12/21 07:31:24;;;;;;;8.73;7.18;;;2.10;99.90;;;;;;4978822;28;20042;-85
2022/12/21 07:33:52;;;;;;;9.00;7.88;;;2.20;99.90;;;;;;4981250;28;20073;-85
2022/12/21 07:36:20;;;;;;;9.93;7.60;;;2.30;99.90;;;;;;4968193;28;20457;-85
2022/12/21 07:38:52;;;;;;;9.00;6.05;;;2.20;99.90;;;;;;5017638;28;20053;-86
2022/12/21 07:41:20;;;;;;;8.93;7.30;;;2.00;99.90;;;;;;4988408;28;20048;-85
2022/12/21 07:43:51;;;;;;;6.47;5.88;;;2.00;99.90;;;;;;4987180;28;20390;-84
2022/12/21 07:46:44;;;;;;;32.83;7.88;;;1.90;99.90;;;;;;5019041;28;20069;-85
2022/12/21 07:49:14;;;;;;;12.52;7.95;;;1.80;99.90;;;;;;4999327;28;20429;-86
2022/12/21 07:51:42;;;;;;;14.02;7.50;;;1.70;99.90;;;;;;5022713;28;20056;-86
2022/12/21 07:54:09;;;;;;;9.13;6.45;;;1.60;99.90;;;;;;5015309;28;20053;-85
2022/12/21 07:56:37;;;;;;;7.97;6.55;;;1.60;99.90;;;;;;5019354;28;20042;-85
2022/12/21 07:59:05;;;;;;;9.95;6.00;;;1.60;99.90;;;;;;5002044;28;20053;-85
2022/12/21 08:01:33;;;;;;;8.77;6.18;;;1.60;99.90;;;;;;4984952;28;20061;-86
2022/12/21 08:04:06;;;;;;;19.58;7.50;;;1.70;99.90;;;;;;5000997;28;20057;-86
2022/12/21 08:06:35;;;;;;;7.40;6.70;;;1.90;99.90;;;;;;5020931;28;20056;-86
2022/12/21 08:09:10;;;;;;;9.18;6.30;;;2.00;99.90;;;;;;4976810;28;20046;-85
2022/12/21 08:11:38;;;;;;;7.30;6.70;;;2.20;99.90;;;;;;5018368;28;20056;-86
2022/12/21 08:14:05;;;;;;;6.85;6.32;;;2.20;99.90;;;;;;5020263;28;20050;-85
2022/12/21 08:16:38;;;;;;;19.90;10.82;;;2.10;99.90;;;;;;5000463;28;20049;-86
2022/12/21 08:19:06;;;;;;;8.45;7.65;;;2.00;99.90;;;;;;5005705;28;20058;-85
2022/12/21 08:21:33;;;;;;;6.35;5.75;;;1.90;99.90;;;;;;5000525;28;20049;-86
2022/12/21 08:24:01;;;;;;;9.75;7.38;;;1.80;99.90;;;;;;5005342;28;20404;-86
2022/12/21 08:26:28;;;;;;;54.17;9.50;;;1.80;99.90;;;;;;4968231;28;20050;-86
2022/12/21 08:28:57;;;;;;;6.35;5.72;;;1.80;99.90;;;;;;4991972;28;20053;-86
2022/12/21 08:31:28;;;;;;;6.90;5.63;;;1.80;99.90;;;;;;5009800;28;20050;-87
2022/12/21 08:33:56;;;;;;;5.63;5.00;;;1.90;99.90;;;;;;4958814;28;20046;-87
2022/12/21 08:36:30;;;;;;;10.45;9.55;;;2.00;99.90;;;;;;4972934;28;20049;-87
2022/12/21 08:39:02;;;;;;;18.15;6.70;;;2.20;99.90;;;;;;4967513;28;20054;-88
2022/12/21 08:41:37;;;;;;;7.00;6.22;;;2.30;99.90;;;;;;4969307;28;20053;-87
2022/12/21 08:44:05;;;;;;;30.67;9.30;;;2.20;99.90;;;;;;4982710;28;20060;-87
2022/12/21 08:46:34;;;;;;;8.43;5.60;;;2.10;99.90;;;;;;5009555;28;20045;-87
2022/12/21 08:49:02;;;;;;;23.83;8.98;;;2.10;99.90;;;;;;4995700;28;20057;-87
2022/12/21 08:51:30;;;;;;;32.60;8.27;;;2.10;99.90;;;;;;4984655;28;20061;-88
2022/12/21 08:53:57;;;;;;;14.93;7.22;;;2.20;99.90;;;;;;4967684;28;20050;-87
2022/12/21 08:56:25;;;;;;;14.18;6.80;;;2.20;99.90;;;;;;4952733;28;20042;-87
2022/12/21 08:58:53;;;;;;;5.93;5.32;;;2.30;99.90;;;;;;4968983;28;20054;-87
2022/12/21 09:01:22;;;;;;;5.68;5.18;;;2.50;99.90;;;;;;4984734;28;20054;-87
2022/12/21 09:03:50;;;;;;;7.10;6.40;;;2.60;99.90;;;;;;4968705;28;20047;-87
2022/12/21 09:06:20;;;;;;;14.80;10.32;;;2.70;99.90;;;;;;4970707;28;20054;-89
2022/12/21 09:08:50;;;;;;;40.57;9.57;;;2.80;99.90;;;;;;4967614;28;20051;-88
2022/12/21 09:11:19;;;;;;;9.77;8.68;;;2.60;99.90;;;;;;4969126;28;20058;-88
2022/12/21 09:13:56;;;;;;;8.30;7.40;;;2.40;99.90;;;;;;4970343;28;20065;-89
2022/12/21 09:16:24;;;;;;;28.92;12.20;;;2.40;99.90;;;;;;4968388;28;20050;-89
2022/12/21 09:18:56;;;;;;;16.70;12.63;;;2.30;99.90;;;;;;4968865;28;20061;-89
2022/12/21 09:21:24;;;;;;;21.25;11.70;;;2.30;99.90;;;;;;4968868;28;20061;-89
2022/12/21 09:23:52;;;;;;;34.80;14.48;;;2.30;99.90;;;;;;4970956;28;20050;-89
2022/12/21 09:26:20;;;;;;;20.05;16.33;;;2.30;99.90;;;;;;4988733;28;20046;-88
2022/12/21 09:28:47;;;;;;;31.17;13.48;;;2.20;99.90;;;;;;4955674;28;20042;-88
2022/12/21 09:31:19;;;;;;;41.03;10.50;;;2.30;99.90;;;;;;4988484;28;20050;-88
2022/12/21 09:33:53;;;;;;;42.78;11.70;;;2.30;99.90;;;;;;4987264;28;20061;-87
2022/12/21 09:36:23;;;;;;;20.38;10.57;;;2.40;99.90;;;;;;4988027;28;20041;-88
2022/12/21 09:38:54;;;;;;;31.77;10.18;;;2.30;99.90;;;;;;4987295;28;20062;-89
2022/12/21 09:41:33;;;;;;;45.55;10.73;;;2.30;99.90;;;;;;4988529;28;20050;-89
2022/12/21 09:44:25;;;;;;;9.55;7.93;;;2.30;99.90;;;;;;5003560;28;20046;-89
2022/12/21 09:46:58;;;;;;;18.65;9.90;;;2.30;99.90;;;;;;4998883;28;20047;-89
2022/12/21 09:49:38;;;;;;;15.07;9.10;;;2.40;99.90;;;;;;4986419;28;20051;-89
2022/12/21 09:52:14;;;;;;;17.60;10.90;;;2.50;99.90;;;;;;4982755;28;20239;-89
2022/12/21 09:54:51;;;;;;;46.97;10.60;;;2.50;99.90;;;;;;4995280;28;20053;-88
2022/12/21 09:57:19;;;;;;;25.08;9.48;;;2.60;99.90;;;;;;4980022;28;20327;-89
2022/12/21 09:59:47;;;;;;;11.65;9.52;;;2.60;99.90;;;;;;4987934;28;20054;-89
2022/12/21 10:02:42;;;;;;;14.85;13.10;;;2.50;99.90;;;;;;4987153;28;20061;-88
2022/12/21 10:05:39;;;;;;;20.40;12.85;;;2.60;99.90;;;;;;4955927;28;20045;-88
2022/12/21 10:08:26;;;;;;;13.15;11.40;;;2.70;99.90;;;;;;4986935;28;20046;-89
2022/12/21 10:11:02;;;;;;;41.83;9.90;;;2.80;99.90;;;;;;4988765;28;20050;-89
2022/12/21 10:13:56;;;;;;;31.00;10.00;;;2.90;99.90;;;;;;4966867;28;20049;-89
2022/12/21 10:16:33;;;;;;;10.65;8.38;;;2.70;99.90;;;;;;4985799;28;20050;-88
2022/12/21 10:19:32;;;;;;;20.55;10.40;;;2.90;99.90;;;;;;4981032;28;20229;-88
2022/12/21 10:22:34;;;;;;;66.60;12.25;;;3.10;99.90;;;;;;4984348;28;20054;-88
2022/12/21 10:25:12;;;;;;;31.00;12.50;;;3.00;99.90;;;;;;4954334;28;20050;-90
2022/12/21 10:27:44;;;;;;;14.68;10.73;;;3.00;99.90;;;;;;4979217;28;20046;-84
2022/12/21 10:30:14;;;;;;;16.83;11.98;;;3.10;99.90;;;;;;4993683;28;20037;-84
2022/12/21 10:32:47;;;;;;;17.45;12.82;;;3.10;99.90;;;;;;5006266;28;20259;-83
2022/12/21 10:35:47;;;;;;;25.83;12.55;;;3.10;99.90;;;;;;5008556;28;20072;-84
2022/12/21 10:38:17;;;;;;;25.90;9.68;;;3.20;99.90;;;;;;4903716;29;20052;-84
2022/12/21 10:40:51;;;;;;;16.85;14.35;;;3.30;99.90;;;;;;4943940;28;20059;-84
2022/12/21 10:43:21;;;;;;;17.27;13.63;;;3.40;99.90;;;;;;4915485;29;20059;-84
2022/12/21 10:45:49;;;;;;;8.45;7.50;;;3.60;99.90;;;;;;4919865;28;20044;-84
2022/12/21 10:48:19;;;;;;;133.60;70.07;;;3.60;99.90;;;;;;4932111;28;20050;-84
2022/12/21 10:50:50;;;;;;;123.05;60.75;;;3.70;99.90;;;;;;4979041;28;20093;-84
2022/12/21 10:53:28;;;;;;;11.40;8.27;;;3.80;99.90;;;;;;4949251;28;20297;-84
2022/12/21 10:55:58;;;;;;;7.68;6.93;;;3.80;99.90;;;;;;4938237;28;20059;-84
2022/12/21 10:58:30;;;;;;;12.95;8.40;;;3.80;99.90;;;;;;4971509;28;20112;-84
2022/12/21 11:01:02;;;;;;;21.85;13.32;;;3.90;99.90;;;;;;4962415;28;20061;-84
2022/12/21 11:03:34;;;;;;;14.90;8.60;;;3.90;99.90;;;;;;4957307;28;20054;-84
2022/12/21 11:06:34;;;;;;;13.93;10.77;;;4.00;99.90;;;;;;4954446;28;20050;-84
2022/12/21 11:09:02;;;;;;;7.95;6.35;;;4.10;99.90;;;;;;4943910;28;20054;-84
2022/12/21 11:11:32;;;;;;;8.30;7.53;;;4.10;99.90;;;;;;4992106;28;20066;-84
2022/12/21 11:14:15;;;;;;;12.38;9.63;;;4.20;99.90;;;;;;4990352;28;20053;-84
2022/12/21 11:16:47;;;;;;;14.23;8.48;;;4.20;99.90;;;;;;4984737;28;20888;-84
2022/12/21 11:19:21;;;;;;;9.85;7.40;;;4.20;99.90;;;;;;4982579;28;20474;-84
2022/12/21 11:21:52;;;;;;;10.02;7.07;;;4.30;99.90;;;;;;4948730;28;20041;-85
2022/12/21 11:24:24;;;;;;;12.75;11.70;;;4.30;99.90;;;;;;4956106;28;20042;-84
2022/12/21 11:27:21;;;;;;;12.27;10.55;;;4.40;99.90;;;;;;4955129;28;20046;-84
2022/12/21 11:29:59;;;;;;;11.38;8.80;;;4.40;99.90;;;;;;4954619;28;20107;-84
2022/12/21 11:32:29;;;;;;;7.85;6.97;;;4.50;99.90;;;;;;4981776;28;20046;-84
2022/12/21 11:35:00;;;;;;;;;;;4.50;99.90;;;;;;4971662;28;20038;-84
2022/12/21 11:37:36;;;;;;;7.65;6.93;;;4.40;99.90;;;;;;4967316;28;19922;-84
2022/12/21 11:40:10;;;;;;;8.07;6.82;;;4.50;99.90;;;;;;4967036;28;20034;-84
2022/12/21 11:42:59;;;;;;;9.20;5.88;;;4.30;99.90;;;;;;4960287;28;20057;-84
2022/12/21 11:45:52;;;;;;;8.05;6.70;;;4.40;99.90;;;;;;4985101;28;20055;-84
2022/12/21 11:49:27;;;;;;;7.78;6.97;;;4.30;99.90;;;;;;4987832;28;20050;-84
2022/12/21 11:52:18;;;;;;;11.70;8.25;;;4.40;99.90;;;;;;4933324;28;20059;-84
2022/12/21 11:55:01;;;;;;;10.25;7.57;;;4.40;99.90;;;;;;4971396;28;20082;-85
2022/12/21 11:57:48;;;;;;;11.73;8.38;;;4.50;99.90;;;;;;4971233;28;20062;-85
2022/12/21 12:00:18;;;;;;;10.63;9.13;;;4.50;99.90;;;;;;4971278;28;20039;-85
2022/12/21 12:03:21;;;;;;;10.13;8.35;;;4.50;99.90;;;;;;4971495;28;20047;-85
2022/12/21 12:06:05;;;;;;;9.10;8.18;;;4.60;99.90;;;;;;4971137;28;20051;-85
2022/12/21 12:08:52;;;;;;;7.32;6.65;;;4.70;99.90;;;;;;4967528;28;20047;-85
2022/12/21 12:11:37;;;;;;;12.45;7.82;;;4.50;99.90;;;;;;4985720;28;20058;-85
2022/12/21 12:14:21;;;;;;;7.82;6.18;;;4.40;99.90;;;;;;4969771;28;20054;-85
2022/12/21 12:17:10;;;;;;;9.55;7.45;;;4.50;99.90;;;;;;4971038;28;20050;-85
2022/12/21 12:20:02;;;;;;;8.50;7.72;;;4.50;99.90;;;;;;4973880;28;20089;-85
2022/12/21 12:22:45;;;;;;;8.75;7.93;;;4.60;99.90;;;;;;4986034;28;20059;-85
2022/12/21 12:25:44;;;;;;;8.10;6.32;;;4.50;99.90;;;;;;4988766;28;20053;-85
2022/12/21 12:28:41;;;;;;;8.25;7.47;;;4.40;99.90;;;;;;4972890;28;20050;-86
2022/12/21 12:31:15;;;;;;;8.68;6.82;;;4.30;99.90;;;;;;4988510;28;20077;-85
2022/12/21 12:33:57;;;;;;;8.40;7.57;;;4.10;99.90;;;;;;4988322;28;20045;-85
2022/12/21 12:36:27;;;;;;;;;;;4.00;99.90;;;;;;4988600;28;20443;-86
2022/12/21 12:39:12;;;;;;;7.88;7.10;;;3.60;99.90;;;;;;4997808;28;19949;-84
2022/12/21 12:42:04;;;;;;;8.13;7.32;;;3.40;99.90;;;;;;4991380;28;20267;-84
2022/12/21 12:44:50;;;;;;;13.95;7.80;;;3.50;99.90;;;;;;5008842;28;20072;-84
2022/12/21 12:47:48;;;;;;;9.30;6.95;;;3.80;99.90;;;;;;5009761;28;20050;-84
2022/12/21 12:50:24;;;;;;;6.20;5.47;;;3.70;99.90;;;;;;4945632;28;20090;-83
2022/12/21 12:53:06;;;;;;;9.27;8.48;;;3.80;99.90;;;;;;4952744;28;20060;-84
2022/12/21 12:55:57;;;;;;;7.95;7.15;;;3.70;99.90;;;;;;4955349;28;20419;-83
2022/12/21 12:59:01;;;;;;;10.70;7.55;;;3.90;99.90;;;;;;4970456;28;20050;-83
2022/12/21 13:02:01;;;;;;;8.65;7.75;;;4.00;99.90;;;;;;4981490;28;20046;-84
2022/12/21 13:04:38;;;;;;;;;;;3.80;99.90;;;;;;4961274;28;20053;-83
2022/12/21 13:07:24;;;;;;;7.88;7.10;;;3.40;99.90;;;;;;4950818;28;19922;-84
2022/12/21 13:10:18;;;;;;;13.77;7.55;;;3.30;99.90;;;;;;4950315;28;20043;-83
2022/12/21 13:13:09;;;;;;;5.18;4.68;;;3.20;99.90;;;;;;4967016;28;20042;-83
2022/12/21 13:15:49;;;;;;;7.97;7.27;;;3.00;99.90;;;;;;4953369;28;20043;-83
2022/12/21 13:18:48;;;;;;;8.07;7.28;;;3.10;99.90;;;;;;4966615;28;20047;-86
2022/12/21 13:21:20;;;;;;;9.00;8.30;;;3.10;99.90;;;;;;4977218;28;20057;-86
2022/12/21 13:23:56;;;;;;;7.45;6.68;;;3.10;99.90;;;;;;4994908;28;20043;-86
2022/12/21 13:26:30;;;;;;;7.68;6.88;;;3.00;99.90;;;;;;5003818;28;20049;-86
2022/12/21 13:29:17;;;;;;;10.55;9.02;;;3.20;99.90;;;;;;4991052;28;20046;-87
2022/12/21 13:31:50;;;;;;;7.28;6.57;;;3.40;99.90;;;;;;4997717;28;20052;-85
2022/12/21 13:34:59;;;;;;;7.25;6.55;;;3.40;99.90;;;;;;4988279;28;20287;-85
2022/12/21 13:37:27;;;;;;;7.80;6.85;;;3.30;99.90;;;;;;4982798;28;20061;-85
2022/12/21 13:40:19;;;;;;;9.45;7.93;;;3.40;99.90;;;;;;5006186;28;20050;-86
2022/12/21 13:42:57;;;;;;;8.52;6.57;;;3.40;99.90;;;;;;5007890;28;20148;-85